Chelan Falls, Washington
Current Conditions -  °F | °C
As of 6:11 PM on Thursday 18 Dec 2014 (Local Time) from KEAT Reporting Station
Light Rain Light Rain  
Wind Chill: 34°   Ceiling: 1100
Heat Index: 38°   Visibility: 2.5mi
Dew Point: 36°   Wind: 5mph
Humidity: 93%   Direction: 90°E
Pressure: 29.94"   Gusts: NA
Location:  47.8°N, 119.99°W
Report Text: KEAT 190211Z AUTO 09004KT 2 1/2SM -RA BR OVC011 03/02 A2994 RMK AO2 RAB09 P0000 T00330022
Loading
Personal Weather Stations






























Interactive Weather Map New forecast layout! Learn more

10-Day Weather Forecast

Advertisements
Track Severe Weather on mobile